Oostkamp, Belgium
Current Conditions -  °F | °C
As of 9:50 PM on Thursday 27 Nov 2014 (Local Time) from EBOS Reporting Station
Broken Clouds Broken Clouds  
Wind Chill: 50°   Ceiling: 600
Heat Index: 50°   Visibility: 4mi
Dew Point: 48°   Wind: 6mph
Humidity: 94%   Direction: 120°ESE
Pressure: 29.65"   Gusts: NA
Location:  51.15°N, 3.23°E
Report Text: EBOS 272050Z 12005KT 7000 BKN006 10/09 Q1004 NOSIG
Loading
Personal Weather Stations






























Interactive Weather Map New forecast layout! Learn more

10-Day Weather Forecast

Advertisements
Track Severe Weather on mobile